Lao Skyway MA60 at Vientiane on Nov 13th 2015, runway excursion on landing

Last Update: November 13, 2015 / 14:49:54 GMT/Zulu time

Bookmark this article
Incident Facts

Date of incident
Nov 13, 2015

Classification
Incident

Airline
Lao Skyway

Flight number
LLL-265

Destination
Vientiane, Laos

Aircraft Registration
RDPL-34226

Aircraft Type
XIAN MA-60

ICAO Type Designator
MA60

A Lao Skyway Xian MA-60, registration RDPL-34226 performing flight LLL-265 from Luang Prabang to Vientiane (Laos), landed on Vientiane Wattay International Airport's runway 13 but went off the runway and came to a stop on soft ground at about 14:00L (07:00Z). There were no injuries, the damage to the aircraft is being assessed.

The occurrence is being investigated.

Laos' Civil Aviation Authority reported the aircraft performed an emergency landing.

Ground witnesses reported the aircraft suffered an engine failure.

Vientiane Wattay International Airport features a runway 13/31 of 3,000 meters/9,840 feet length.

Metars:
VLVT 130800Z 32002KT 9999 SCT020 34/24 Q1009 NOSIG
VLVT 130730Z 34004KT 9999 SCT020 34/24 Q1010 NOSIG
VLVT 130700Z 22002KT 9999 SCT020 34/24 Q1010 NOSIG
VLVT 130630Z 27002KT 9999 SCT020 34/24 Q1011 NOSIG
VLVT 130600Z 16002KT 9999 SCT020 32/24 Q1011 NOSIG
VLVT 130530Z 27002KT 9999 SCT020 33/24 Q1013 NOSIG
VLVT 130500Z 18002KT 9999 SCT020 32/24 Q1013 NOSIG
VLVT 130430Z 27002KT 9999 SCT020 FEW050 32/24 Q1014 NOSIG
VLVT 130400Z 18002KT 9999 FEW020 FEW050 31/24 Q1014 NOSIG
Incident Facts

Date of incident
Nov 13, 2015

Classification
Incident

Airline
Lao Skyway

Flight number
LLL-265

Destination
Vientiane, Laos

Aircraft Registration
RDPL-34226

Aircraft Type
XIAN MA-60

ICAO Type Designator
MA60

This article is published under license from Avherald.com. © of text by Avherald.com.
Article source

You can read 4 more free articles without a subscription.

Subscribe now and continue reading without any limits!

Are you a subscriber?
Login
Subscribe

Read unlimited articles and receive our daily update briefing. Gain better insights into what is happening in commercial aviation safety.

Free newsletter

Want to know more and stay ahead? Get our free weekly newsletter and join 4932 existing subscribers.

By subscribing, you accept our terms and conditions and confirm that you've read our privacy policy.

Send tip

Support AeroInside by sending a small tip amount.

Newest articles

Subscribe today

Are you researching aviation incidents? Get access to AeroInside Insights, unlimited read access and receive the daily newsletter.

Pick your plan and subscribe

Partner

Blockaviation logo

A new way to document and demonstrate airworthiness compliance and aircraft value. Find out more.

Virtual Speech logo

ELITE Simulation Solutions is a leading global provider of Flight Simulation Training Devices, IFR training software as well as flight controls and related services. Find out more.

Get updates

Never miss an article from AeroInside. Subscribe to our free weekly newsletter and join 4932 existing subscribers.

By subscribing, you accept our terms and conditions and that you've read our privacy policy.

AeroInside Blog
Popular aircraft
Airbus A320
Boeing 737-800
Boeing 737-800 MAX
Popular airlines
American Airlines
United
Delta
Air Canada
Lufthansa
British Airways